sensor_id;sensor_type;location;lat;lon;timestamp;temperature;humidity
19622;DHT22;9958;33.196;-97.114;2023-07-13T00:00:06;39.80;56.80
19622;DHT22;9958;33.196;-97.114;2023-07-13T00:02:38;39.70;56.60
19622;DHT22;9958;33.196;-97.114;2023-07-13T00:05:07;39.60;56.80
19622;DHT22;9958;33.196;-97.114;2023-07-13T00:07:35;39.50;57.30
19622;DHT22;9958;33.196;-97.114;2023-07-13T00:10:05;39.50;57.20
19622;DHT22;9958;33.196;-97.114;2023-07-13T00:12:37;39.40;57.10
19622;DHT22;9958;33.196;-97.114;2023-07-13T00:15:09;39.30;57.40
19622;DHT22;9958;33.196;-97.114;2023-07-13T00:17:41;39.30;57.60
19622;DHT22;9958;33.196;-97.114;2023-07-13T00:20:11;39.20;58.20
19622;DHT22;9958;33.196;-97.114;2023-07-13T00:22:39;39.10;58.10
19622;DHT22;9958;33.196;-97.114;2023-07-13T00:25:09;39.10;58.80
19622;DHT22;9958;33.196;-97.114;2023-07-13T00:27:38;39.00;59.20
19622;DHT22;9958;33.196;-97.114;2023-07-13T00:30:07;39.00;60.00
19622;DHT22;9958;33.196;-97.114;2023-07-13T00:32:37;39.00;60.20
19622;DHT22;9958;33.196;-97.114;2023-07-13T00:35:07;38.90;60.10
19622;DHT22;9958;33.196;-97.114;2023-07-13T00:37:36;38.90;60.00
19622;DHT22;9958;33.196;-97.114;2023-07-13T00:40:06;38.80;60.40
19622;DHT22;9958;33.196;-97.114;2023-07-13T00:42:34;38.80;60.80
19622;DHT22;9958;33.196;-97.114;2023-07-13T00:45:04;38.80;61.00
19622;DHT22;9958;33.196;-97.114;2023-07-13T00:47:33;38.70;61.00
19622;DHT22;9958;33.196;-97.114;2023-07-13T00:50:03;38.60;61.70
19622;DHT22;9958;33.196;-97.114;2023-07-13T00:52:34;38.50;62.00
19622;DHT22;9958;33.196;-97.114;2023-07-13T00:55:03;38.40;61.80
19622;DHT22;9958;33.196;-97.114;2023-07-13T00:57:32;38.40;62.30
19622;DHT22;9958;33.196;-97.114;2023-07-13T01:00:04;38.30;62.00
19622;DHT22;9958;33.196;-97.114;2023-07-13T01:02:36;38.20;62.20
19622;DHT22;9958;33.196;-97.114;2023-07-13T01:05:09;38.10;62.60
19622;DHT22;9958;33.196;-97.114;2023-07-13T01:07:40;38.10;63.10
19622;DHT22;9958;33.196;-97.114;2023-07-13T01:10:10;38.00;63.00
19622;DHT22;9958;33.196;-97.114;2023-07-13T01:12:39;37.90;63.00
19622;DHT22;9958;33.196;-97.114;2023-07-13T01:18:05;37.80;64.00
19622;DHT22;9958;33.196;-97.114;2023-07-13T01:20:35;37.60;63.70
19622;DHT22;9958;33.196;-97.114;2023-07-13T01:23:07;37.60;64.30
19622;DHT22;9958;33.196;-97.114;2023-07-13T01:25:37;37.60;64.20
19622;DHT22;9958;33.196;-97.114;2023-07-13T01:28:06;37.50;63.50
19622;DHT22;9958;33.196;-97.114;2023-07-13T01:30:36;37.40;63.40
19622;DHT22;9958;33.196;-97.114;2023-07-13T01:33:06;37.40;63.00
19622;DHT22;9958;33.196;-97.114;2023-07-13T01:35:36;37.30;64.10
19622;DHT22;9958;33.196;-97.114;2023-07-13T01:38:06;37.30;64.10
19622;DHT22;9958;33.196;-97.114;2023-07-13T01:40:36;37.20;64.00
19622;DHT22;9958;33.196;-97.114;2023-07-13T01:43:05;37.20;64.50
19622;DHT22;9958;33.196;-97.114;2023-07-13T01:45:33;37.10;65.10
19622;DHT22;9958;33.196;-97.114;2023-07-13T01:48:02;37.00;65.80
19622;DHT22;9958;33.196;-97.114;2023-07-13T01:50:30;37.00;66.10
19622;DHT22;9958;33.196;-97.114;2023-07-13T01:52:58;36.90;67.20
19622;DHT22;9958;33.196;-97.114;2023-07-13T01:55:29;36.90;67.80
19622;DHT22;9958;33.196;-97.114;2023-07-13T01:57:57;36.80;68.20
19622;DHT22;9958;33.196;-97.114;2023-07-13T02:00:26;36.80;68.80
19622;DHT22;9958;33.196;-97.114;2023-07-13T02:02:54;36.70;69.20
19622;DHT22;9958;33.196;-97.114;2023-07-13T02:05:22;36.60;69.70
19622;DHT22;9958;33.196;-97.114;2023-07-13T02:07:51;36.60;69.80
19622;DHT22;9958;33.196;-97.114;2023-07-13T02:10:20;36.50;69.80
19622;DHT22;9958;33.196;-97.114;2023-07-13T02:12:51;36.50;70.00
19622;DHT22;9958;33.196;-97.114;2023-07-13T02:15:19;36.50;70.40
19622;DHT22;9958;33.196;-97.114;2023-07-13T02:17:47;36.40;70.20
19622;DHT22;9958;33.196;-97.114;2023-07-13T02:20:16;36.30;70.30
19622;DHT22;9958;33.196;-97.114;2023-07-13T02:22:44;36.40;70.90
19622;DHT22;9958;33.196;-97.114;2023-07-13T02:25:12;36.20;71.00
19622;DHT22;9958;33.196;-97.114;2023-07-13T02:27:41;36.20;71.30
19622;DHT22;9958;33.196;-97.114;2023-07-13T02:30:11;36.20;71.40
19622;DHT22;9958;33.196;-97.114;2023-07-13T02:32:40;36.10;71.60
19622;DHT22;9958;33.196;-97.114;2023-07-13T02:35:08;36.10;71.90
19622;DHT22;9958;33.196;-97.114;2023-07-13T02:37:37;36.00;72.00
19622;DHT22;9958;33.196;-97.114;2023-07-13T02:40:06;36.00;72.50
19622;DHT22;9958;33.196;-97.114;2023-07-13T02:42:35;36.00;72.90
19622;DHT22;9958;33.196;-97.114;2023-07-13T02:45:04;35.90;73.30
19622;DHT22;9958;33.196;-97.114;2023-07-13T02:47:34;35.80;73.00
19622;DHT22;9958;33.196;-97.114;2023-07-13T02:50:03;35.70;72.80
19622;DHT22;9958;33.196;-97.114;2023-07-13T02:52:32;35.70;72.80
19622;DHT22;9958;33.196;-97.114;2023-07-13T02:55:00;35.60;72.80
19622;DHT22;9958;33.196;-97.114;2023-07-13T02:57:28;35.60;72.80
19622;DHT22;9958;33.196;-97.114;2023-07-13T02:59:57;35.60;72.90
19622;DHT22;9958;33.196;-97.114;2023-07-13T03:02:26;35.50;72.80
19622;DHT22;9958;33.196;-97.114;2023-07-13T03:04:57;35.50;73.40
19622;DHT22;9958;33.196;-97.114;2023-07-13T03:07:25;35.50;73.50
19622;DHT22;9958;33.196;-97.114;2023-07-13T03:09:54;35.40;73.50
19622;DHT22;9958;33.196;-97.114;2023-07-13T03:12:23;35.30;74.50
19622;DHT22;9958;33.196;-97.114;2023-07-13T03:14:52;35.30;73.90
19622;DHT22;9958;33.196;-97.114;2023-07-13T03:17:20;35.20;74.10
19622;DHT22;9958;33.196;-97.114;2023-07-13T03:19:48;35.20;74.30
19622;DHT22;9958;33.196;-97.114;2023-07-13T03:22:19;35.20;74.50
19622;DHT22;9958;33.196;-97.114;2023-07-13T03:24:47;35.10;74.90
19622;DHT22;9958;33.196;-97.114;2023-07-13T03:27:16;35.00;74.80
19622;DHT22;9958;33.196;-97.114;2023-07-13T03:29:45;35.10;75.00
19622;DHT22;9958;33.196;-97.114;2023-07-13T03:32:13;35.00;75.10
19622;DHT22;9958;33.196;-97.114;2023-07-13T03:34:42;35.00;75.40
19622;DHT22;9958;33.196;-97.114;2023-07-13T03:37:10;34.90;75.20
19622;DHT22;9958;33.196;-97.114;2023-07-13T03:39:40;34.80;74.70
19622;DHT22;9958;33.196;-97.114;2023-07-13T03:42:08;34.80;75.30
19622;DHT22;9958;33.196;-97.114;2023-07-13T03:44:36;34.70;75.10
19622;DHT22;9958;33.196;-97.114;2023-07-13T03:47:05;34.70;75.60
19622;DHT22;9958;33.196;-97.114;2023-07-13T03:49:35;34.70;75.70
19622;DHT22;9958;33.196;-97.114;2023-07-13T03:52:04;34.70;75.80
19622;DHT22;9958;33.196;-97.114;2023-07-13T03:54:32;34.60;75.70
19622;DHT22;9958;33.196;-97.114;2023-07-13T03:57:02;34.60;75.70
19622;DHT22;9958;33.196;-97.114;2023-07-13T03:59:31;34.60;75.60
19622;DHT22;9958;33.196;-97.114;2023-07-13T04:02:00;34.50;75.50
19622;DHT22;9958;33.196;-97.114;2023-07-13T04:04:31;34.50;75.80
19622;DHT22;9958;33.196;-97.114;2023-07-13T04:07:00;34.50;75.80
19622;DHT22;9958;33.196;-97.114;2023-07-13T04:09:28;34.50;75.90
19622;DHT22;9958;33.196;-97.114;2023-07-13T04:11:56;34.40;76.20
19622;DHT22;9958;33.196;-97.114;2023-07-13T04:14:26;34.50;76.30
19622;DHT22;9958;33.196;-97.114;2023-07-13T04:16:54;34.40;76.60
19622;DHT22;9958;33.196;-97.114;2023-07-13T04:19:24;34.40;76.70
19622;DHT22;9958;33.196;-97.114;2023-07-13T04:21:52;34.40;76.70
19622;DHT22;9958;33.196;-97.114;2023-07-13T04:24:20;34.30;76.90
19622;DHT22;9958;33.196;-97.114;2023-07-13T04:26:48;34.30;77.10
19622;DHT22;9958;33.196;-97.114;2023-07-13T04:29:17;34.20;77.00
19622;DHT22;9958;33.196;-97.114;2023-07-13T04:31:47;34.20;77.20
19622;DHT22;9958;33.196;-97.114;2023-07-13T04:34:15;34.20;77.30
19622;DHT22;9958;33.196;-97.114;2023-07-13T04:36:44;34.20;77.30
19622;DHT22;9958;33.196;-97.114;2023-07-13T04:39:12;34.10;77.40
19622;DHT22;9958;33.196;-97.114;2023-07-13T04:41:40;34.10;77.70
19622;DHT22;9958;33.196;-97.114;2023-07-13T04:44:09;34.10;77.80
19622;DHT22;9958;33.196;-97.114;2023-07-13T04:46:38;34.00;77.90
19622;DHT22;9958;33.196;-97.114;2023-07-13T04:49:08;34.00;78.00
19622;DHT22;9958;33.196;-97.114;2023-07-13T04:51:36;34.00;78.20
19622;DHT22;9958;33.196;-97.114;2023-07-13T04:54:04;33.90;78.50
19622;DHT22;9958;33.196;-97.114;2023-07-13T04:56:34;33.90;78.60
19622;DHT22;9958;33.196;-97.114;2023-07-13T04:59:02;33.90;78.70
19622;DHT22;9958;33.196;-97.114;2023-07-13T05:01:31;33.90;78.70
19622;DHT22;9958;33.196;-97.114;2023-07-13T05:03:59;33.80;78.70
19622;DHT22;9958;33.196;-97.114;2023-07-13T05:06:29;33.80;79.30
19622;DHT22;9958;33.196;-97.114;2023-07-13T05:08:57;33.80;79.40
19622;DHT22;9958;33.196;-97.114;2023-07-13T05:11:26;33.70;79.90
19622;DHT22;9958;33.196;-97.114;2023-07-13T05:13:54;33.70;79.90
19622;DHT22;9958;33.196;-97.114;2023-07-13T05:16:22;33.60;80.30
19622;DHT22;9958;33.196;-97.114;2023-07-13T05:18:51;33.60;80.90
19622;DHT22;9958;33.196;-97.114;2023-07-13T05:21:19;33.60;81.30
19622;DHT22;9958;33.196;-97.114;2023-07-13T05:23:49;33.50;81.60
19622;DHT22;9958;33.196;-97.114;2023-07-13T05:26:17;33.40;81.90
19622;DHT22;9958;33.196;-97.114;2023-07-13T05:28:47;33.30;82.10
19622;DHT22;9958;33.196;-97.114;2023-07-13T05:31:15;33.30;82.10
19622;DHT22;9958;33.196;-97.114;2023-07-13T05:33:43;33.30;82.40
19622;DHT22;9958;33.196;-97.114;2023-07-13T05:36:12;33.30;83.00
19622;DHT22;9958;33.196;-97.114;2023-07-13T05:38:40;33.20;82.90
19622;DHT22;9958;33.196;-97.114;2023-07-13T05:41:10;33.20;83.20
19622;DHT22;9958;33.196;-97.114;2023-07-13T05:43:38;33.20;83.70
19622;DHT22;9958;33.196;-97.114;2023-07-13T05:46:06;33.10;83.60
19622;DHT22;9958;33.196;-97.114;2023-07-13T05:48:35;33.10;84.10
19622;DHT22;9958;33.196;-97.114;2023-07-13T05:51:03;33.10;84.30
19622;DHT22;9958;33.196;-97.114;2023-07-13T05:53:31;33.00;84.80
19622;DHT22;9958;33.196;-97.114;2023-07-13T05:56:00;33.00;84.90
19622;DHT22;9958;33.196;-97.114;2023-07-13T05:58:30;32.90;85.20
19622;DHT22;9958;33.196;-97.114;2023-07-13T06:01:03;32.90;85.30
19622;DHT22;9958;33.196;-97.114;2023-07-13T06:03:32;32.80;85.30
19622;DHT22;9958;33.196;-97.114;2023-07-13T06:06:00;32.80;86.10
19622;DHT22;9958;33.196;-97.114;2023-07-13T06:08:29;32.80;86.60
19622;DHT22;9958;33.196;-97.114;2023-07-13T06:11:03;32.80;87.00
19622;DHT22;9958;33.196;-97.114;2023-07-13T06:13:33;32.80;87.40
19622;DHT22;9958;33.196;-97.114;2023-07-13T06:16:02;32.70;88.20
19622;DHT22;9958;33.196;-97.114;2023-07-13T06:18:32;32.60;88.40
19622;DHT22;9958;33.196;-97.114;2023-07-13T06:21:00;32.60;89.60
19622;DHT22;9958;33.196;-97.114;2023-07-13T06:23:29;32.60;89.00
19622;DHT22;9958;33.196;-97.114;2023-07-13T06:25:57;32.60;89.50
19622;DHT22;9958;33.196;-97.114;2023-07-13T06:28:25;32.50;90.10
19622;DHT22;9958;33.196;-97.114;2023-07-13T06:30:55;32.50;90.10
19622;DHT22;9958;33.196;-97.114;2023-07-13T06:33:24;32.50;90.40
19622;DHT22;9958;33.196;-97.114;2023-07-13T06:35:52;32.50;90.40
19622;DHT22;9958;33.196;-97.114;2023-07-13T06:38:21;32.40;90.60
19622;DHT22;9958;33.196;-97.114;2023-07-13T06:40:50;32.40;90.80
19622;DHT22;9958;33.196;-97.114;2023-07-13T06:43:18;32.40;91.10
19622;DHT22;9958;33.196;-97.114;2023-07-13T06:45:48;32.30;91.20
19622;DHT22;9958;33.196;-97.114;2023-07-13T06:48:19;32.30;91.30
19622;DHT22;9958;33.196;-97.114;2023-07-13T06:50:49;32.20;91.50
19622;DHT22;9958;33.196;-97.114;2023-07-13T06:53:19;32.10;91.60
19622;DHT22;9958;33.196;-97.114;2023-07-13T06:55:48;32.20;92.30
19622;DHT22;9958;33.196;-97.114;2023-07-13T06:58:19;32.10;92.30
19622;DHT22;9958;33.196;-97.114;2023-07-13T07:00:50;32.10;92.40
19622;DHT22;9958;33.196;-97.114;2023-07-13T07:03:20;32.00;92.70
19622;DHT22;9958;33.196;-97.114;2023-07-13T07:05:49;32.00;92.90
19622;DHT22;9958;33.196;-97.114;2023-07-13T07:08:17;32.00;93.20
19622;DHT22;9958;33.196;-97.114;2023-07-13T07:10:45;32.00;93.40
19622;DHT22;9958;33.196;-97.114;2023-07-13T07:13:17;31.90;93.80
19622;DHT22;9958;33.196;-97.114;2023-07-13T07:15:46;31.90;94.00
19622;DHT22;9958;33.196;-97.114;2023-07-13T07:18:14;31.90;94.40
19622;DHT22;9958;33.196;-97.114;2023-07-13T07:20:44;31.80;94.60
19622;DHT22;9958;33.196;-97.114;2023-07-13T07:23:12;31.80;95.00
19622;DHT22;9958;33.196;-97.114;2023-07-13T07:25:43;31.80;95.40
19622;DHT22;9958;33.196;-97.114;2023-07-13T07:28:12;31.80;95.60
19622;DHT22;9958;33.196;-97.114;2023-07-13T07:30:42;31.70;95.90
19622;DHT22;9958;33.196;-97.114;2023-07-13T07:33:10;31.70;96.20
19622;DHT22;9958;33.196;-97.114;2023-07-13T07:35:39;31.60;96.80
19622;DHT22;9958;33.196;-97.114;2023-07-13T07:38:09;31.60;96.90
19622;DHT22;9958;33.196;-97.114;2023-07-13T07:40:37;31.60;97.10
19622;DHT22;9958;33.196;-97.114;2023-07-13T07:43:06;31.60;97.50
19622;DHT22;9958;33.196;-97.114;2023-07-13T07:45:35;31.60;97.70
19622;DHT22;9958;33.196;-97.114;2023-07-13T07:48:04;31.50;97.90
19622;DHT22;9958;33.196;-97.114;2023-07-13T07:50:33;31.50;98.20
19622;DHT22;9958;33.196;-97.114;2023-07-13T07:53:01;31.50;98.40
19622;DHT22;9958;33.196;-97.114;2023-07-13T07:55:33;31.40;98.80
19622;DHT22;9958;33.196;-97.114;2023-07-13T07:58:02;31.40;99.00
19622;DHT22;9958;33.196;-97.114;2023-07-13T08:00:31;31.40;99.30
19622;DHT22;9958;33.196;-97.114;2023-07-13T08:02:59;31.30;99.70
19622;DHT22;9958;33.196;-97.114;2023-07-13T08:05:27;31.30;99.90
19622;DHT22;9958;33.196;-97.114;2023-07-13T08:07:56;31.30;99.90
19622;DHT22;9958;33.196;-97.114;2023-07-13T08:10:24;31.30;99.90
19622;DHT22;9958;33.196;-97.114;2023-07-13T08:12:54;31.20;99.90
19622;DHT22;9958;33.196;-97.114;2023-07-13T08:15:22;31.20;99.90
19622;DHT22;9958;33.196;-97.114;2023-07-13T08:17:51;31.20;99.90
19622;DHT22;9958;33.196;-97.114;2023-07-13T08:20:19;31.10;99.90
19622;DHT22;9958;33.196;-97.114;2023-07-13T08:22:47;31.10;99.90
19622;DHT22;9958;33.196;-97.114;2023-07-13T08:25:16;31.10;99.90
19622;DHT22;9958;33.196;-97.114;2023-07-13T08:27:44;31.10;99.90
19622;DHT22;9958;33.196;-97.114;2023-07-13T08:30:14;31.00;99.90
19622;DHT22;9958;33.196;-97.114;2023-07-13T08:32:43;31.00;99.90
19622;DHT22;9958;33.196;-97.114;2023-07-13T08:35:11;30.90;99.90
19622;DHT22;9958;33.196;-97.114;2023-07-13T08:37:40;30.90;99.90
19622;DHT22;9958;33.196;-97.114;2023-07-13T08:40:09;30.90;99.90
19622;DHT22;9958;33.196;-97.114;2023-07-13T08:42:42;30.90;99.90
19622;DHT22;9958;33.196;-97.114;2023-07-13T08:45:21;30.90;99.90
19622;DHT22;9958;33.196;-97.114;2023-07-13T08:47:52;30.80;99.90
19622;DHT22;9958;33.196;-97.114;2023-07-13T08:50:25;30.80;99.90
19622;DHT22;9958;33.196;-97.114;2023-07-13T08:52:56;30.80;99.90
19622;DHT22;9958;33.196;-97.114;2023-07-13T08:55:27;30.70;99.90
19622;DHT22;9958;33.196;-97.114;2023-07-13T08:58:05;30.70;99.90
19622;DHT22;9958;33.196;-97.114;2023-07-13T09:00:46;30.60;99.90
19622;DHT22;9958;33.196;-97.114;2023-07-13T09:03:23;30.60;99.90
19622;DHT22;9958;33.196;-97.114;2023-07-13T09:05:56;30.60;99.90
19622;DHT22;9958;33.196;-97.114;2023-07-13T09:08:37;30.60;99.90
19622;DHT22;9958;33.196;-97.114;2023-07-13T09:11:16;30.60;99.90
19622;DHT22;9958;33.196;-97.114;2023-07-13T09:13:53;30.50;99.90
19622;DHT22;9958;33.196;-97.114;2023-07-13T09:16:26;30.50;99.90
19622;DHT22;9958;33.196;-97.114;2023-07-13T09:18:59;30.50;99.90
19622;DHT22;9958;33.196;-97.114;2023-07-13T09:21:31;30.50;99.90
19622;DHT22;9958;33.196;-97.114;2023-07-13T09:24:24;30.50;99.90
19622;DHT22;9958;33.196;-97.114;2023-07-13T09:26:51;30.40;99.90
19622;DHT22;9958;33.196;-97.114;2023-07-13T09:29:26;30.40;99.90
19622;DHT22;9958;33.196;-97.114;2023-07-13T09:31:58;30.40;99.90
19622;DHT22;9958;33.196;-97.114;2023-07-13T09:34:29;30.40;99.90
19622;DHT22;9958;33.196;-97.114;2023-07-13T09:36:58;30.30;99.90
19622;DHT22;9958;33.196;-97.114;2023-07-13T09:39:29;30.30;99.90
19622;DHT22;9958;33.196;-97.114;2023-07-13T09:42:03;30.30;99.90
19622;DHT22;9958;33.196;-97.114;2023-07-13T09:44:36;30.20;99.90
19622;DHT22;9958;33.196;-97.114;2023-07-13T09:47:16;30.20;99.90
19622;DHT22;9958;33.196;-97.114;2023-07-13T09:49:45;30.20;99.90
19622;DHT22;9958;33.196;-97.114;2023-07-13T09:52:15;30.20;99.90
19622;DHT22;9958;33.196;-97.114;2023-07-13T09:54:45;30.20;99.90
19622;DHT22;9958;33.196;-97.114;2023-07-13T09:57:17;30.20;99.90
19622;DHT22;9958;33.196;-97.114;2023-07-13T09:59:48;30.10;99.90
19622;DHT22;9958;33.196;-97.114;2023-07-13T10:02:29;30.10;99.90
19622;DHT22;9958;33.196;-97.114;2023-07-13T10:05:00;30.10;99.90
19622;DHT22;9958;33.196;-97.114;2023-07-13T10:07:30;30.00;99.90
19622;DHT22;9958;33.196;-97.114;2023-07-13T10:10:00;30.00;99.90
19622;DHT22;9958;33.196;-97.114;2023-07-13T10:12:30;30.00;99.90
19622;DHT22;9958;33.196;-97.114;2023-07-13T10:15:13;29.90;99.90
19622;DHT22;9958;33.196;-97.114;2023-07-13T10:17:45;29.90;99.90
19622;DHT22;9958;33.196;-97.114;2023-07-13T10:20:13;29.90;99.90
19622;DHT22;9958;33.196;-97.114;2023-07-13T10:22:45;29.90;99.90
19622;DHT22;9958;33.196;-97.114;2023-07-13T10:25:19;29.90;99.90
19622;DHT22;9958;33.196;-97.114;2023-07-13T10:27:50;29.90;99.90
19622;DHT22;9958;33.196;-97.114;2023-07-13T10:30:21;29.80;99.90
19622;DHT22;9958;33.196;-97.114;2023-07-13T10:32:53;29.80;99.90
19622;DHT22;9958;33.196;-97.114;2023-07-13T10:35:22;29.80;99.90
19622;DHT22;9958;33.196;-97.114;2023-07-13T10:37:53;29.80;99.90
19622;DHT22;9958;33.196;-97.114;2023-07-13T10:40:27;29.80;99.90
19622;DHT22;9958;33.196;-97.114;2023-07-13T10:42:58;29.70;99.90
19622;DHT22;9958;33.196;-97.114;2023-07-13T10:45:31;29.60;99.90
19622;DHT22;9958;33.196;-97.114;2023-07-13T10:48:04;29.60;99.90
19622;DHT22;9958;33.196;-97.114;2023-07-13T10:50:34;29.60;99.90
19622;DHT22;9958;33.196;-97.114;2023-07-13T10:53:18;29.60;99.90
19622;DHT22;9958;33.196;-97.114;2023-07-13T10:55:59;29.60;99.90
19622;DHT22;9958;33.196;-97.114;2023-07-13T10:58:34;29.50;99.90
19622;DHT22;9958;33.196;-97.114;2023-07-13T11:01:09;29.50;99.90
19622;DHT22;9958;33.196;-97.114;2023-07-13T11:03:50;29.50;99.90
19622;DHT22;9958;33.196;-97.114;2023-07-13T11:06:33;29.40;99.90
19622;DHT22;9958;33.196;-97.114;2023-07-13T11:09:20;29.40;99.90
19622;DHT22;9958;33.196;-97.114;2023-07-13T11:11:59;29.40;99.90
19622;DHT22;9958;33.196;-97.114;2023-07-13T11:14:34;29.40;99.90
19622;DHT22;9958;33.196;-97.114;2023-07-13T11:17:36;29.30;99.90
19622;DHT22;9958;33.196;-97.114;2023-07-13T11:20:34;29.40;99.90
19622;DHT22;9958;33.196;-97.114;2023-07-13T11:26:03;29.40;99.90
19622;DHT22;9958;33.196;-97.114;2023-07-13T11:28:32;29.40;99.90
19622;DHT22;9958;33.196;-97.114;2023-07-13T11:31:14;29.30;99.90
19622;DHT22;9958;33.196;-97.114;2023-07-13T11:33:51;29.30;99.90
19622;DHT22;9958;33.196;-97.114;2023-07-13T11:36:23;29.30;99.90
19622;DHT22;9958;33.196;-97.114;2023-07-13T11:38:58;29.30;99.90
19622;DHT22;9958;33.196;-97.114;2023-07-13T11:41:29;29.30;99.90
19622;DHT22;9958;33.196;-97.114;2023-07-13T11:44:07;29.30;99.90
19622;DHT22;9958;33.196;-97.114;2023-07-13T11:46:43;29.20;99.90
19622;DHT22;9958;33.196;-97.114;2023-07-13T11:49:17;29.20;99.90
19622;DHT22;9958;33.196;-97.114;2023-07-13T11:51:47;29.20;99.90
19622;DHT22;9958;33.196;-97.114;2023-07-13T11:54:25;29.20;99.90
19622;DHT22;9958;33.196;-97.114;2023-07-13T11:56:55;29.10;99.90
19622;DHT22;9958;33.196;-97.114;2023-07-13T11:59:27;29.10;99.90
19622;DHT22;9958;33.196;-97.114;2023-07-13T12:01:55;29.10;99.90
19622;DHT22;9958;33.196;-97.114;2023-07-13T12:04:28;29.00;99.90
19622;DHT22;9958;33.196;-97.114;2023-07-13T12:07:05;29.10;99.90
19622;DHT22;9958;33.196;-97.114;2023-07-13T12:09:35;29.00;99.90
19622;DHT22;9958;33.196;-97.114;2023-07-13T12:12:09;29.10;99.90
19622;DHT22;9958;33.196;-97.114;2023-07-13T12:14:38;29.00;99.90
19622;DHT22;9958;33.196;-97.114;2023-07-13T12:17:11;29.10;99.90
19622;DHT22;9958;33.196;-97.114;2023-07-13T12:19:41;29.10;99.90
19622;DHT22;9958;33.196;-97.114;2023-07-13T12:22:13;29.10;99.90
19622;DHT22;9958;33.196;-97.114;2023-07-13T12:24:43;29.10;99.90
19622;DHT22;9958;33.196;-97.114;2023-07-13T12:27:19;29.10;99.90
19622;DHT22;9958;33.196;-97.114;2023-07-13T12:29:56;29.10;99.90
19622;DHT22;9958;33.196;-97.114;2023-07-13T12:32:26;29.10;99.90
19622;DHT22;9958;33.196;-97.114;2023-07-13T12:35:01;29.10;99.90
19622;DHT22;9958;33.196;-97.114;2023-07-13T12:37:34;29.20;99.90
19622;DHT22;9958;33.196;-97.114;2023-07-13T12:40:04;29.20;99.90
19622;DHT22;9958;33.196;-97.114;2023-07-13T12:42:40;29.20;99.90
19622;DHT22;9958;33.196;-97.114;2023-07-13T12:45:17;29.10;99.90
19622;DHT22;9958;33.196;-97.114;2023-07-13T12:47:49;29.20;99.90
19622;DHT22;9958;33.196;-97.114;2023-07-13T12:50:19;29.20;99.90
19622;DHT22;9958;33.196;-97.114;2023-07-13T12:53:01;29.30;99.90
19622;DHT22;9958;33.196;-97.114;2023-07-13T12:55:30;29.30;99.90
19622;DHT22;9958;33.196;-97.114;2023-07-13T12:58:03;29.30;99.90
19622;DHT22;9958;33.196;-97.114;2023-07-13T13:00:33;29.40;99.90
19622;DHT22;9958;33.196;-97.114;2023-07-13T13:03:05;29.40;99.90
19622;DHT22;9958;33.196;-97.114;2023-07-13T13:05:34;29.40;99.90
19622;DHT22;9958;33.196;-97.114;2023-07-13T13:08:07;29.50;99.90
19622;DHT22;9958;33.196;-97.114;2023-07-13T13:10:36;29.50;99.90
19622;DHT22;9958;33.196;-97.114;2023-07-13T13:13:04;29.60;99.90
19622;DHT22;9958;33.196;-97.114;2023-07-13T13:15:32;29.70;99.90
19622;DHT22;9958;33.196;-97.114;2023-07-13T13:18:02;29.70;99.90
19622;DHT22;9958;33.196;-97.114;2023-07-13T13:20:31;29.90;99.90
19622;DHT22;9958;33.196;-97.114;2023-07-13T13:22:59;30.10;99.90
19622;DHT22;9958;33.196;-97.114;2023-07-13T13:25:29;30.20;99.90
19622;DHT22;9958;33.196;-97.114;2023-07-13T13:27:57;30.40;99.90
19622;DHT22;9958;33.196;-97.114;2023-07-13T13:30:26;30.50;99.90
19622;DHT22;9958;33.196;-97.114;2023-07-13T13:32:54;30.60;99.90
19622;DHT22;9958;33.196;-97.114;2023-07-13T13:35:22;30.70;99.90
19622;DHT22;9958;33.196;-97.114;2023-07-13T13:37:53;30.70;99.90
19622;DHT22;9958;33.196;-97.114;2023-07-13T13:40:22;30.70;99.90
19622;DHT22;9958;33.196;-97.114;2023-07-13T13:42:52;30.70;99.90
19622;DHT22;9958;33.196;-97.114;2023-07-13T13:45:22;30.70;99.90
19622;DHT22;9958;33.196;-97.114;2023-07-13T13:47:50;30.80;99.90
19622;DHT22;9958;33.196;-97.114;2023-07-13T13:50:21;30.80;99.90
19622;DHT22;9958;33.196;-97.114;2023-07-13T13:52:50;30.80;99.90
19622;DHT22;9958;33.196;-97.114;2023-07-13T13:55:20;30.90;99.90
19622;DHT22;9958;33.196;-97.114;2023-07-13T13:57:52;30.90;99.90
19622;DHT22;9958;33.196;-97.114;2023-07-13T14:00:21;31.00;99.90
19622;DHT22;9958;33.196;-97.114;2023-07-13T14:02:51;31.10;99.90
19622;DHT22;9958;33.196;-97.114;2023-07-13T14:05:23;31.20;99.90
19622;DHT22;9958;33.196;-97.114;2023-07-13T14:07:52;31.20;99.90
19622;DHT22;9958;33.196;-97.114;2023-07-13T14:10:21;31.20;99.90
19622;DHT22;9958;33.196;-97.114;2023-07-13T14:12:53;31.20;99.90
19622;DHT22;9958;33.196;-97.114;2023-07-13T14:15:25;31.20;99.90
19622;DHT22;9958;33.196;-97.114;2023-07-13T14:17:54;31.20;99.90
19622;DHT22;9958;33.196;-97.114;2023-07-13T14:20:25;31.20;99.90
19622;DHT22;9958;33.196;-97.114;2023-07-13T14:22:53;31.20;99.90
19622;DHT22;9958;33.196;-97.114;2023-07-13T14:25:22;31.20;99.90
19622;DHT22;9958;33.196;-97.114;2023-07-13T14:27:54;31.20;99.90
19622;DHT22;9958;33.196;-97.114;2023-07-13T14:30:25;31.30;99.90
19622;DHT22;9958;33.196;-97.114;2023-07-13T14:32:53;31.40;99.90
19622;DHT22;9958;33.196;-97.114;2023-07-13T14:35:22;31.50;99.90
19622;DHT22;9958;33.196;-97.114;2023-07-13T14:37:51;31.50;99.90
19622;DHT22;9958;33.196;-97.114;2023-07-13T14:40:24;31.50;99.90
19622;DHT22;9958;33.196;-97.114;2023-07-13T14:42:55;31.60;99.90
19622;DHT22;9958;33.196;-97.114;2023-07-13T14:45:24;31.60;99.90
19622;DHT22;9958;33.196;-97.114;2023-07-13T14:47:53;31.70;99.90
19622;DHT22;9958;33.196;-97.114;2023-07-13T14:50:26;31.70;99.90
19622;DHT22;9958;33.196;-97.114;2023-07-13T14:52:56;31.90;99.90
19622;DHT22;9958;33.196;-97.114;2023-07-13T14:55:25;32.10;99.90
19622;DHT22;9958;33.196;-97.114;2023-07-13T14:57:55;32.40;99.90
19622;DHT22;9958;33.196;-97.114;2023-07-13T15:00:24;32.70;99.90
19622;DHT22;9958;33.196;-97.114;2023-07-13T15:02:53;32.90;99.90
19622;DHT22;9958;33.196;-97.114;2023-07-13T15:05:23;33.10;99.90
19622;DHT22;9958;33.196;-97.114;2023-07-13T15:07:53;33.20;99.90
19622;DHT22;9958;33.196;-97.114;2023-07-13T15:10:27;33.40;99.90
19622;DHT22;9958;33.196;-97.114;2023-07-13T15:13:01;33.60;99.90
19622;DHT22;9958;33.196;-97.114;2023-07-13T15:15:41;33.70;99.90
19622;DHT22;9958;33.196;-97.114;2023-07-13T15:18:12;33.90;99.90
19622;DHT22;9958;33.196;-97.114;2023-07-13T15:20:40;34.00;99.90
19622;DHT22;9958;33.196;-97.114;2023-07-13T15:23:11;34.20;99.90
19622;DHT22;9958;33.196;-97.114;2023-07-13T15:25:40;34.30;99.90
19622;DHT22;9958;33.196;-97.114;2023-07-13T15:28:11;34.50;99.90
19622;DHT22;9958;33.196;-97.114;2023-07-13T15:30:41;34.60;99.90
19622;DHT22;9958;33.196;-97.114;2023-07-13T15:33:13;34.70;99.90
19622;DHT22;9958;33.196;-97.114;2023-07-13T15:35:43;34.90;99.90
19622;DHT22;9958;33.196;-97.114;2023-07-13T15:38:18;35.00;99.90
19622;DHT22;9958;33.196;-97.114;2023-07-13T15:40:47;35.20;99.90